sensor_id;sensor_type;location;lat;lon;timestamp;P1;durP1;ratioP1;P2;durP2;ratioP2
72205;SDS011;60111;48.286;7.812;2023-07-08T00:01:59;8.43;;;4.53;;
72205;SDS011;60111;48.286;7.812;2023-07-08T00:04:32;8.68;;;4.37;;
72205;SDS011;60111;48.286;7.812;2023-07-08T00:07:05;10.53;;;4.45;;
72205;SDS011;60111;48.286;7.812;2023-07-08T00:09:39;8.95;;;4.85;;
72205;SDS011;60111;48.286;7.812;2023-07-08T00:12:11;8.80;;;4.70;;
72205;SDS011;60111;48.286;7.812;2023-07-08T00:14:44;9.33;;;4.20;;
72205;SDS011;60111;48.286;7.812;2023-07-08T00:17:18;10.85;;;5.00;;
72205;SDS011;60111;48.286;7.812;2023-07-08T00:19:50;9.60;;;4.90;;
72205;SDS011;60111;48.286;7.812;2023-07-08T00:22:25;12.55;;;4.92;;
72205;SDS011;60111;48.286;7.812;2023-07-08T00:24:57;8.00;;;4.70;;
72205;SDS011;60111;48.286;7.812;2023-07-08T00:27:30;7.85;;;4.87;;
72205;SDS011;60111;48.286;7.812;2023-07-08T00:30:07;8.78;;;4.50;;
72205;SDS011;60111;48.286;7.812;2023-07-08T00:32:41;11.18;;;4.58;;
72205;SDS011;60111;48.286;7.812;2023-07-08T00:35:13;11.15;;;4.35;;
72205;SDS011;60111;48.286;7.812;2023-07-08T00:37:46;8.38;;;4.28;;
72205;SDS011;60111;48.286;7.812;2023-07-08T00:40:20;7.27;;;4.23;;
72205;SDS011;60111;48.286;7.812;2023-07-08T00:42:53;8.63;;;4.22;;
72205;SDS011;60111;48.286;7.812;2023-07-08T00:51:06;7.67;;;4.28;;
72205;SDS011;60111;48.286;7.812;2023-07-08T00:53:41;9.85;;;4.78;;
72205;SDS011;60111;48.286;7.812;2023-07-08T00:56:33;7.33;;;4.55;;
72205;SDS011;60111;48.286;7.812;2023-07-08T01:01:31;9.88;;;4.42;;
72205;SDS011;60111;48.286;7.812;2023-07-08T01:04:08;10.10;;;4.15;;
72205;SDS011;60111;48.286;7.812;2023-07-08T01:06:45;8.68;;;5.10;;
72205;SDS011;60111;48.286;7.812;2023-07-08T01:09:21;7.75;;;3.67;;
72205;SDS011;60111;48.286;7.812;2023-07-08T01:11:56;6.20;;;3.90;;
72205;SDS011;60111;48.286;7.812;2023-07-08T01:14:33;11.15;;;4.05;;
72205;SDS011;60111;48.286;7.812;2023-07-08T01:17:07;6.53;;;4.35;;
72205;SDS011;60111;48.286;7.812;2023-07-08T01:19:42;7.97;;;4.65;;
72205;SDS011;60111;48.286;7.812;2023-07-08T01:22:16;7.90;;;4.55;;
72205;SDS011;60111;48.286;7.812;2023-07-08T01:24:48;8.03;;;4.27;;
72205;SDS011;60111;48.286;7.812;2023-07-08T01:27:21;7.33;;;4.00;;
72205;SDS011;60111;48.286;7.812;2023-07-08T01:29:54;8.65;;;4.20;;
72205;SDS011;60111;48.286;7.812;2023-07-08T01:32:26;6.40;;;4.33;;
72205;SDS011;60111;48.286;7.812;2023-07-08T01:35:00;8.37;;;4.47;;
72205;SDS011;60111;48.286;7.812;2023-07-08T01:40:17;8.40;;;4.20;;
72205;SDS011;60111;48.286;7.812;2023-07-08T01:42:55;9.35;;;4.50;;
72205;SDS011;60111;48.286;7.812;2023-07-08T01:48:06;10.60;;;4.40;;
72205;SDS011;60111;48.286;7.812;2023-07-08T01:50:42;10.72;;;4.72;;
72205;SDS011;60111;48.286;7.812;2023-07-08T01:53:18;10.30;;;4.20;;
72205;SDS011;60111;48.286;7.812;2023-07-08T01:55:52;11.28;;;4.87;;
72205;SDS011;60111;48.286;7.812;2023-07-08T01:58:24;8.55;;;4.28;;
72205;SDS011;60111;48.286;7.812;2023-07-08T02:00:57;9.05;;;4.37;;
72205;SDS011;60111;48.286;7.812;2023-07-08T02:03:30;13.70;;;4.80;;
72205;SDS011;60111;48.286;7.812;2023-07-08T02:06:05;10.70;;;4.70;;
72205;SDS011;60111;48.286;7.812;2023-07-08T02:08:39;8.83;;;5.00;;
72205;SDS011;60111;48.286;7.812;2023-07-08T02:11:11;7.22;;;4.45;;
72205;SDS011;60111;48.286;7.812;2023-07-08T02:13:44;10.70;;;4.30;;
72205;SDS011;60111;48.286;7.812;2023-07-08T02:16:16;8.63;;;5.17;;
72205;SDS011;60111;48.286;7.812;2023-07-08T02:18:49;9.75;;;4.67;;
72205;SDS011;60111;48.286;7.812;2023-07-08T02:21:21;9.10;;;4.60;;
72205;SDS011;60111;48.286;7.812;2023-07-08T02:23:54;9.05;;;4.78;;
72205;SDS011;60111;48.286;7.812;2023-07-08T02:26:26;8.90;;;4.97;;
72205;SDS011;60111;48.286;7.812;2023-07-08T02:29:00;7.97;;;4.87;;
72205;SDS011;60111;48.286;7.812;2023-07-08T02:31:33;7.35;;;4.92;;
72205;SDS011;60111;48.286;7.812;2023-07-08T02:34:06;8.28;;;4.80;;
72205;SDS011;60111;48.286;7.812;2023-07-08T02:36:38;7.10;;;4.67;;
72205;SDS011;60111;48.286;7.812;2023-07-08T02:39:14;9.83;;;4.45;;
72205;SDS011;60111;48.286;7.812;2023-07-08T02:41:47;8.83;;;4.80;;
72205;SDS011;60111;48.286;7.812;2023-07-08T02:44:20;11.33;;;4.75;;
72205;SDS011;60111;48.286;7.812;2023-07-08T02:46:52;12.50;;;4.53;;
72205;SDS011;60111;48.286;7.812;2023-07-08T02:49:25;10.45;;;4.95;;
72205;SDS011;60111;48.286;7.812;2023-07-08T02:51:58;11.83;;;5.12;;
72205;SDS011;60111;48.286;7.812;2023-07-08T02:54:30;12.70;;;5.30;;
72205;SDS011;60111;48.286;7.812;2023-07-08T02:57:03;8.60;;;4.85;;
72205;SDS011;60111;48.286;7.812;2023-07-08T02:59:36;8.65;;;4.78;;
72205;SDS011;60111;48.286;7.812;2023-07-08T03:02:09;10.40;;;4.40;;
72205;SDS011;60111;48.286;7.812;2023-07-08T03:04:42;7.45;;;4.30;;
72205;SDS011;60111;48.286;7.812;2023-07-08T03:07:14;8.57;;;4.87;;
72205;SDS011;60111;48.286;7.812;2023-07-08T03:09:48;11.93;;;5.40;;
72205;SDS011;60111;48.286;7.812;2023-07-08T03:12:21;9.15;;;4.70;;
72205;SDS011;60111;48.286;7.812;2023-07-08T03:14:53;9.60;;;4.87;;
72205;SDS011;60111;48.286;7.812;2023-07-08T03:17:26;8.43;;;4.83;;
72205;SDS011;60111;48.286;7.812;2023-07-08T03:19:59;13.65;;;5.33;;
72205;SDS011;60111;48.286;7.812;2023-07-08T03:22:31;13.10;;;5.37;;
72205;SDS011;60111;48.286;7.812;2023-07-08T03:25:04;7.83;;;4.90;;
72205;SDS011;60111;48.286;7.812;2023-07-08T03:27:37;8.98;;;5.00;;
72205;SDS011;60111;48.286;7.812;2023-07-08T03:30:10;10.55;;;5.47;;
72205;SDS011;60111;48.286;7.812;2023-07-08T03:32:44;11.93;;;5.65;;
72205;SDS011;60111;48.286;7.812;2023-07-08T03:35:16;9.48;;;5.28;;
72205;SDS011;60111;48.286;7.812;2023-07-08T03:37:49;11.45;;;5.28;;
72205;SDS011;60111;48.286;7.812;2023-07-08T03:40:21;10.38;;;5.50;;
72205;SDS011;60111;48.286;7.812;2023-07-08T03:42:54;9.88;;;5.17;;
72205;SDS011;60111;48.286;7.812;2023-07-08T03:45:26;9.53;;;4.85;;
72205;SDS011;60111;48.286;7.812;2023-07-08T03:47:59;11.35;;;5.47;;
72205;SDS011;60111;48.286;7.812;2023-07-08T03:50:32;9.23;;;4.83;;
72205;SDS011;60111;48.286;7.812;2023-07-08T03:53:04;10.90;;;4.92;;
72205;SDS011;60111;48.286;7.812;2023-07-08T03:55:37;11.17;;;5.40;;
72205;SDS011;60111;48.286;7.812;2023-07-08T03:58:09;9.90;;;5.67;;
72205;SDS011;60111;48.286;7.812;2023-07-08T04:00:42;14.13;;;5.30;;
72205;SDS011;60111;48.286;7.812;2023-07-08T04:03:14;10.53;;;5.17;;
72205;SDS011;60111;48.286;7.812;2023-07-08T04:05:47;11.55;;;4.90;;
72205;SDS011;60111;48.286;7.812;2023-07-08T04:08:19;16.30;;;5.37;;
72205;SDS011;60111;48.286;7.812;2023-07-08T04:10:52;9.05;;;4.90;;
72205;SDS011;60111;48.286;7.812;2023-07-08T04:13:24;8.68;;;5.00;;
72205;SDS011;60111;48.286;7.812;2023-07-08T04:15:59;13.08;;;5.72;;
72205;SDS011;60111;48.286;7.812;2023-07-08T04:18:32;11.68;;;5.28;;
72205;SDS011;60111;48.286;7.812;2023-07-08T04:21:07;9.77;;;5.07;;
72205;SDS011;60111;48.286;7.812;2023-07-08T04:23:39;12.50;;;5.53;;
72205;SDS011;60111;48.286;7.812;2023-07-08T04:26:12;8.87;;;4.43;;
72205;SDS011;60111;48.286;7.812;2023-07-08T04:28:45;11.97;;;4.80;;
72205;SDS011;60111;48.286;7.812;2023-07-08T04:31:17;11.48;;;4.67;;
72205;SDS011;60111;48.286;7.812;2023-07-08T04:33:50;9.00;;;4.50;;
72205;SDS011;60111;48.286;7.812;2023-07-08T04:36:22;11.93;;;4.05;;
72205;SDS011;60111;48.286;7.812;2023-07-08T04:38:57;10.85;;;3.87;;
72205;SDS011;60111;48.286;7.812;2023-07-08T04:41:30;8.30;;;4.00;;
72205;SDS011;60111;48.286;7.812;2023-07-08T04:44:03;13.05;;;4.60;;
72205;SDS011;60111;48.286;7.812;2023-07-08T04:49:16;8.75;;;4.03;;
72205;SDS011;60111;48.286;7.812;2023-07-08T04:51:50;8.40;;;4.12;;
72205;SDS011;60111;48.286;7.812;2023-07-08T04:56:55;11.40;;;4.10;;
72205;SDS011;60111;48.286;7.812;2023-07-08T04:59:27;13.38;;;4.83;;
72205;SDS011;60111;48.286;7.812;2023-07-08T05:02:02;9.43;;;4.42;;
72205;SDS011;60111;48.286;7.812;2023-07-08T05:04:34;8.83;;;4.37;;
72205;SDS011;60111;48.286;7.812;2023-07-08T05:07:07;7.00;;;5.00;;
72205;SDS011;60111;48.286;7.812;2023-07-08T05:09:39;8.88;;;4.58;;
72205;SDS011;60111;48.286;7.812;2023-07-08T05:12:12;9.27;;;4.43;;
72205;SDS011;60111;48.286;7.812;2023-07-08T05:14:44;7.22;;;3.70;;
72205;SDS011;60111;48.286;7.812;2023-07-08T05:17:17;11.55;;;4.67;;
72205;SDS011;60111;48.286;7.812;2023-07-08T05:19:50;9.55;;;4.22;;
72205;SDS011;60111;48.286;7.812;2023-07-08T05:22:22;10.23;;;4.10;;
72205;SDS011;60111;48.286;7.812;2023-07-08T05:27:28;9.78;;;3.60;;
72205;SDS011;60111;48.286;7.812;2023-07-08T05:30:01;7.57;;;3.60;;
72205;SDS011;60111;48.286;7.812;2023-07-08T05:32:35;4.63;;;2.77;;
72205;SDS011;60111;48.286;7.812;2023-07-08T05:35:07;4.20;;;2.83;;
72205;SDS011;60111;48.286;7.812;2023-07-08T05:37:40;6.93;;;3.00;;
72205;SDS011;60111;48.286;7.812;2023-07-08T05:40:14;4.53;;;2.65;;
72205;SDS011;60111;48.286;7.812;2023-07-08T05:42:47;5.35;;;2.50;;
72205;SDS011;60111;48.286;7.812;2023-07-08T05:45:20;6.80;;;2.77;;
72205;SDS011;60111;48.286;7.812;2023-07-08T05:47:52;4.67;;;2.60;;
72205;SDS011;60111;48.286;7.812;2023-07-08T05:50:25;4.50;;;2.25;;
72205;SDS011;60111;48.286;7.812;2023-07-08T05:52:57;4.50;;;2.52;;
72205;SDS011;60111;48.286;7.812;2023-07-08T05:55:31;3.77;;;2.30;;
72205;SDS011;60111;48.286;7.812;2023-07-08T05:58:04;3.87;;;2.40;;
72205;SDS011;60111;48.286;7.812;2023-07-08T06:00:36;10.90;;;2.80;;
72205;SDS011;60111;48.286;7.812;2023-07-08T06:03:09;5.63;;;2.37;;
72205;SDS011;60111;48.286;7.812;2023-07-08T06:05:42;4.10;;;2.42;;
72205;SDS011;60111;48.286;7.812;2023-07-08T06:08:14;4.45;;;2.70;;
72205;SDS011;60111;48.286;7.812;2023-07-08T06:10:47;10.30;;;2.40;;
72205;SDS011;60111;48.286;7.812;2023-07-08T06:13:21;6.70;;;2.33;;
72205;SDS011;60111;48.286;7.812;2023-07-08T06:15:54;5.40;;;2.52;;
72205;SDS011;60111;48.286;7.812;2023-07-08T06:18:27;5.30;;;2.50;;
72205;SDS011;60111;48.286;7.812;2023-07-08T06:20:59;6.67;;;2.35;;
72205;SDS011;60111;48.286;7.812;2023-07-08T06:23:32;3.83;;;2.33;;
72205;SDS011;60111;48.286;7.812;2023-07-08T06:26:05;5.55;;;2.12;;
72205;SDS011;60111;48.286;7.812;2023-07-08T06:28:37;5.03;;;2.33;;
72205;SDS011;60111;48.286;7.812;2023-07-08T06:31:10;5.80;;;2.55;;
72205;SDS011;60111;48.286;7.812;2023-07-08T06:33:42;5.55;;;2.40;;
72205;SDS011;60111;48.286;7.812;2023-07-08T06:36:16;4.93;;;2.43;;
72205;SDS011;60111;48.286;7.812;2023-07-08T06:38:48;3.72;;;2.40;;
72205;SDS011;60111;48.286;7.812;2023-07-08T06:41:21;2.77;;;2.20;;
72205;SDS011;60111;48.286;7.812;2023-07-08T06:43:54;3.52;;;2.20;;
72205;SDS011;60111;48.286;7.812;2023-07-08T06:46:26;3.58;;;2.40;;
72205;SDS011;60111;48.286;7.812;2023-07-08T06:48:59;7.12;;;2.40;;
72205;SDS011;60111;48.286;7.812;2023-07-08T06:51:32;5.78;;;2.22;;
72205;SDS011;60111;48.286;7.812;2023-07-08T06:54:04;3.87;;;2.37;;
72205;SDS011;60111;48.286;7.812;2023-07-08T06:56:39;6.92;;;2.37;;
72205;SDS011;60111;48.286;7.812;2023-07-08T06:59:12;5.00;;;2.13;;
72205;SDS011;60111;48.286;7.812;2023-07-08T07:01:45;4.70;;;2.50;;
72205;SDS011;60111;48.286;7.812;2023-07-08T07:04:17;4.17;;;2.27;;
72205;SDS011;60111;48.286;7.812;2023-07-08T07:06:50;9.60;;;2.62;;
72205;SDS011;60111;48.286;7.812;2023-07-08T07:09:23;4.80;;;2.50;;
72205;SDS011;60111;48.286;7.812;2023-07-08T07:11:55;7.03;;;3.10;;
72205;SDS011;60111;48.286;7.812;2023-07-08T07:14:28;7.30;;;2.95;;
72205;SDS011;60111;48.286;7.812;2023-07-08T07:17:00;6.72;;;2.90;;
72205;SDS011;60111;48.286;7.812;2023-07-08T07:19:33;4.78;;;3.00;;
72205;SDS011;60111;48.286;7.812;2023-07-08T07:22:05;8.13;;;3.30;;
72205;SDS011;60111;48.286;7.812;2023-07-08T07:24:38;7.90;;;2.73;;
72205;SDS011;60111;48.286;7.812;2023-07-08T07:27:11;5.42;;;2.90;;
72205;SDS011;60111;48.286;7.812;2023-07-08T07:29:45;9.68;;;2.80;;
72205;SDS011;60111;48.286;7.812;2023-07-08T07:32:22;15.45;;;2.80;;
72205;SDS011;60111;48.286;7.812;2023-07-08T07:34:55;5.22;;;2.37;;
72205;SDS011;60111;48.286;7.812;2023-07-08T07:40:01;5.97;;;2.55;;
72205;SDS011;60111;48.286;7.812;2023-07-08T07:42:34;8.65;;;2.65;;
72205;SDS011;60111;48.286;7.812;2023-07-08T07:45:06;7.70;;;2.80;;
72205;SDS011;60111;48.286;7.812;2023-07-08T07:47:40;5.17;;;2.83;;
72205;SDS011;60111;48.286;7.812;2023-07-08T07:50:12;6.22;;;2.87;;
72205;SDS011;60111;48.286;7.812;2023-07-08T07:52:45;6.50;;;2.85;;
72205;SDS011;60111;48.286;7.812;2023-07-08T07:55:18;5.42;;;3.00;;
72205;SDS011;60111;48.286;7.812;2023-07-08T07:57:50;6.23;;;2.70;;
72205;SDS011;60111;48.286;7.812;2023-07-08T08:00:23;5.92;;;3.02;;
72205;SDS011;60111;48.286;7.812;2023-07-08T08:02:55;7.20;;;3.10;;
72205;SDS011;60111;48.286;7.812;2023-07-08T08:05:28;6.80;;;2.98;;
72205;SDS011;60111;48.286;7.812;2023-07-08T08:08:01;8.23;;;3.20;;
72205;SDS011;60111;48.286;7.812;2023-07-08T08:13:07;7.83;;;3.70;;
72205;SDS011;60111;48.286;7.812;2023-07-08T08:15:40;6.95;;;3.17;;
72205;SDS011;60111;48.286;7.812;2023-07-08T08:18:13;8.73;;;3.83;;
72205;SDS011;60111;48.286;7.812;2023-07-08T08:20:45;7.78;;;3.85;;
72205;SDS011;60111;48.286;7.812;2023-07-08T08:23:19;9.73;;;3.57;;
72205;SDS011;60111;48.286;7.812;2023-07-08T08:25:52;8.45;;;3.77;;
72205;SDS011;60111;48.286;7.812;2023-07-08T08:28:24;6.92;;;3.05;;
72205;SDS011;60111;48.286;7.812;2023-07-08T08:30:57;5.42;;;3.08;;
72205;SDS011;60111;48.286;7.812;2023-07-08T08:33:30;9.70;;;3.90;;
72205;SDS011;60111;48.286;7.812;2023-07-08T08:36:02;10.65;;;3.85;;
72205;SDS011;60111;48.286;7.812;2023-07-08T08:38:35;12.40;;;3.87;;
72205;SDS011;60111;48.286;7.812;2023-07-08T08:41:14;9.17;;;3.63;;
72205;SDS011;60111;48.286;7.812;2023-07-08T08:43:48;10.53;;;3.70;;
72205;SDS011;60111;48.286;7.812;2023-07-08T08:46:49;14.77;;;4.50;;
72205;SDS011;60111;48.286;7.812;2023-07-08T08:49:15;7.37;;;3.40;;
72205;SDS011;60111;48.286;7.812;2023-07-08T08:51:54;5.75;;;3.42;;
72205;SDS011;60111;48.286;7.812;2023-07-08T08:54:30;7.23;;;3.33;;
72205;SDS011;60111;48.286;7.812;2023-07-08T08:57:06;6.40;;;3.20;;
72205;SDS011;60111;48.286;7.812;2023-07-08T08:59:45;7.15;;;3.10;;
72205;SDS011;60111;48.286;7.812;2023-07-08T09:02:34;8.15;;;2.98;;
72205;SDS011;60111;48.286;7.812;2023-07-08T09:05:14;5.30;;;3.37;;
72205;SDS011;60111;48.286;7.812;2023-07-08T09:10:56;4.47;;;2.45;;
72205;SDS011;60111;48.286;7.812;2023-07-08T09:13:33;4.42;;;2.35;;
72205;SDS011;60111;48.286;7.812;2023-07-08T09:24:13;4.55;;;2.08;;
72205;SDS011;60111;48.286;7.812;2023-07-08T09:26:45;4.50;;;1.80;;
72205;SDS011;60111;48.286;7.812;2023-07-08T09:29:21;3.17;;;2.05;;
72205;SDS011;60111;48.286;7.812;2023-07-08T09:31:54;3.65;;;1.90;;
72205;SDS011;60111;48.286;7.812;2023-07-08T09:34:40;4.67;;;2.30;;
72205;SDS011;60111;48.286;7.812;2023-07-08T09:37:24;2.22;;;1.75;;
72205;SDS011;60111;48.286;7.812;2023-07-08T09:40:10;3.02;;;2.00;;
72205;SDS011;60111;48.286;7.812;2023-07-08T09:42:55;5.17;;;2.10;;
72205;SDS011;60111;48.286;7.812;2023-07-08T09:45:24;6.08;;;2.00;;
72205;SDS011;60111;48.286;7.812;2023-07-08T09:47:57;4.47;;;1.90;;
72205;SDS011;60111;48.286;7.812;2023-07-08T09:50:32;2.85;;;1.40;;
72205;SDS011;60111;48.286;7.812;2023-07-08T09:53:11;2.75;;;1.67;;
72205;SDS011;60111;48.286;7.812;2023-07-08T09:55:45;2.05;;;1.40;;
72205;SDS011;60111;48.286;7.812;2023-07-08T10:00:58;4.15;;;1.55;;
72205;SDS011;60111;48.286;7.812;2023-07-08T10:03:28;4.35;;;1.47;;
72205;SDS011;60111;48.286;7.812;2023-07-08T10:06:04;3.17;;;1.67;;
72205;SDS011;60111;48.286;7.812;2023-07-08T10:08:40;4.62;;;2.10;;
72205;SDS011;60111;48.286;7.812;2023-07-08T10:11:33;5.03;;;1.80;;
72205;SDS011;60111;48.286;7.812;2023-07-08T10:14:09;7.95;;;2.40;;
72205;SDS011;60111;48.286;7.812;2023-07-08T10:19:23;3.52;;;2.17;;
72205;SDS011;60111;48.286;7.812;2023-07-08T10:24:48;4.05;;;2.02;;
72205;SDS011;60111;48.286;7.812;2023-07-08T10:30:39;3.10;;;2.00;;
72205;SDS011;60111;48.286;7.812;2023-07-08T10:41:43;3.12;;;1.75;;
72205;SDS011;60111;48.286;7.812;2023-07-08T10:44:32;2.90;;;1.70;;
72205;SDS011;60111;48.286;7.812;2023-07-08T10:47:23;2.52;;;1.50;;
72205;SDS011;60111;48.286;7.812;2023-07-08T10:52:52;6.25;;;2.17;;
72205;SDS011;60111;48.286;7.812;2023-07-08T11:01:21;2.77;;;1.80;;
72205;SDS011;60111;48.286;7.812;2023-07-08T11:04:02;6.62;;;1.90;;
72205;SDS011;60111;48.286;7.812;2023-07-08T11:06:52;5.90;;;1.92;;
72205;SDS011;60111;48.286;7.812;2023-07-08T11:09:35;5.22;;;1.90;;
72205;SDS011;60111;48.286;7.812;2023-07-08T11:12:08;2.40;;;1.90;;
72205;SDS011;60111;48.286;7.812;2023-07-08T11:14:45;7.03;;;2.40;;
72205;SDS011;60111;48.286;7.812;2023-07-08T11:17:26;3.33;;;2.10;;
72205;SDS011;60111;48.286;7.812;2023-07-08T11:20:13;3.35;;;1.90;;
72205;SDS011;60111;48.286;7.812;2023-07-08T11:23:04;4.10;;;2.20;;
72205;SDS011;60111;48.286;7.812;2023-07-08T11:25:38;4.12;;;1.98;;
72205;SDS011;60111;48.286;7.812;2023-07-08T11:28:15;4.72;;;1.90;;
72205;SDS011;60111;48.286;7.812;2023-07-08T11:30:50;4.22;;;1.92;;
72205;SDS011;60111;48.286;7.812;2023-07-08T11:33:24;4.10;;;2.25;;
72205;SDS011;60111;48.286;7.812;2023-07-08T11:35:58;3.85;;;2.30;;
72205;SDS011;60111;48.286;7.812;2023-07-08T11:38:33;6.28;;;2.05;;
72205;SDS011;60111;48.286;7.812;2023-07-08T11:41:13;2.75;;;2.00;;
72205;SDS011;60111;48.286;7.812;2023-07-08T11:43:52;5.03;;;2.40;;
72205;SDS011;60111;48.286;7.812;2023-07-08T11:46:27;3.98;;;2.15;;
72205;SDS011;60111;48.286;7.812;2023-07-08T11:49:04;4.80;;;2.33;;
72205;SDS011;60111;48.286;7.812;2023-07-08T11:51:38;6.33;;;2.60;;
72205;SDS011;60111;48.286;7.812;2023-07-08T11:54:14;7.03;;;2.40;;
72205;SDS011;60111;48.286;7.812;2023-07-08T11:57:05;4.00;;;2.30;;
72205;SDS011;60111;48.286;7.812;2023-07-08T11:59:40;4.60;;;2.42;;
72205;SDS011;60111;48.286;7.812;2023-07-08T12:02:17;5.17;;;2.27;;
72205;SDS011;60111;48.286;7.812;2023-07-08T12:07:37;3.52;;;2.12;;
72205;SDS011;60111;48.286;7.812;2023-07-08T12:10:13;6.45;;;2.22;;
72205;SDS011;60111;48.286;7.812;2023-07-08T12:12:47;6.72;;;2.05;;
72205;SDS011;60111;48.286;7.812;2023-07-08T12:15:29;4.87;;;2.45;;
72205;SDS011;60111;48.286;7.812;2023-07-08T12:20:40;5.47;;;2.77;;
72205;SDS011;60111;48.286;7.812;2023-07-08T12:23:17;8.53;;;2.60;;
72205;SDS011;60111;48.286;7.812;2023-07-08T12:25:53;5.23;;;2.67;;
72205;SDS011;60111;48.286;7.812;2023-07-08T12:28:28;6.57;;;2.80;;
72205;SDS011;60111;48.286;7.812;2023-07-08T12:31:00;4.50;;;2.40;;
72205;SDS011;60111;48.286;7.812;2023-07-08T12:33:34;4.13;;;2.57;;
72205;SDS011;60111;48.286;7.812;2023-07-08T12:36:09;5.78;;;2.33;;
72205;SDS011;60111;48.286;7.812;2023-07-08T12:38:45;5.28;;;2.50;;
72205;SDS011;60111;48.286;7.812;2023-07-08T12:41:30;3.47;;;2.55;;
72205;SDS011;60111;48.286;7.812;2023-07-08T12:44:07;5.30;;;2.47;;
72205;SDS011;60111;48.286;7.812;2023-07-08T12:46:51;3.92;;;2.50;;
72205;SDS011;60111;48.286;7.812;2023-07-08T12:49:25;6.10;;;2.85;;
72205;SDS011;60111;48.286;7.812;2023-07-08T12:51:59;4.17;;;2.47;;
72205;SDS011;60111;48.286;7.812;2023-07-08T12:54:31;5.70;;;2.62;;
72205;SDS011;60111;48.286;7.812;2023-07-08T12:57:05;4.13;;;2.67;;
72205;SDS011;60111;48.286;7.812;2023-07-08T12:59:39;5.42;;;2.90;;
72205;SDS011;60111;48.286;7.812;2023-07-08T13:02:14;6.10;;;3.10;;
72205;SDS011;60111;48.286;7.812;2023-07-08T13:04:49;5.35;;;3.12;;
72205;SDS011;60111;48.286;7.812;2023-07-08T13:07:32;8.20;;;2.70;;
72205;SDS011;60111;48.286;7.812;2023-07-08T13:10:13;5.45;;;2.70;;
72205;SDS011;60111;48.286;7.812;2023-07-08T13:12:46;7.47;;;3.00;;
72205;SDS011;60111;48.286;7.812;2023-07-08T13:15:22;5.47;;;2.75;;
72205;SDS011;60111;48.286;7.812;2023-07-08T13:17:57;4.03;;;2.50;;
72205;SDS011;60111;48.286;7.812;2023-07-08T13:20:30;4.97;;;2.80;;
72205;SDS011;60111;48.286;7.812;2023-07-08T13:23:03;3.25;;;2.30;;
72205;SDS011;60111;48.286;7.812;2023-07-08T13:25:37;7.12;;;2.50;;
72205;SDS011;60111;48.286;7.812;2023-07-08T13:30:54;5.17;;;2.40;;
72205;SDS011;60111;48.286;7.812;2023-07-08T13:33:29;9.53;;;2.80;;
72205;SDS011;60111;48.286;7.812;2023-07-08T13:36:03;5.67;;;2.70;;
72205;SDS011;60111;48.286;7.812;2023-07-08T13:38:37;4.37;;;2.47;;
72205;SDS011;60111;48.286;7.812;2023-07-08T13:41:15;3.12;;;2.70;;
72205;SDS011;60111;48.286;7.812;2023-07-08T13:43:47;6.97;;;2.67;;
72205;SDS011;60111;48.286;7.812;2023-07-08T13:49:13;3.80;;;2.42;;
72205;SDS011;60111;48.286;7.812;2023-07-08T13:51:47;5.70;;;2.97;;
72205;SDS011;60111;48.286;7.812;2023-07-08T13:54:24;4.77;;;2.77;;
72205;SDS011;60111;48.286;7.812;2023-07-08T13:57:00;4.20;;;2.65;;
72205;SDS011;60111;48.286;7.812;2023-07-08T13:59:33;6.67;;;2.63;;
72205;SDS011;60111;48.286;7.812;2023-07-08T14:02:16;4.58;;;2.60;;
72205;SDS011;60111;48.286;7.812;2023-07-08T14:04:51;4.92;;;2.40;;
72205;SDS011;60111;48.286;7.812;2023-07-08T14:07:25;7.43;;;2.40;;
72205;SDS011;60111;48.286;7.812;2023-07-08T14:10:00;5.97;;;2.58;;
72205;SDS011;60111;48.286;7.812;2023-07-08T14:12:34;4.63;;;2.60;;
72205;SDS011;60111;48.286;7.812;2023-07-08T14:15:08;7.33;;;2.58;;
72205;SDS011;60111;48.286;7.812;2023-07-08T14:17:41;7.55;;;2.72;;
72205;SDS011;60111;48.286;7.812;2023-07-08T14:20:15;5.70;;;2.60;;
72205;SDS011;60111;48.286;7.812;2023-07-08T14:22:49;5.80;;;2.73;;
72205;SDS011;60111;48.286;7.812;2023-07-08T14:25:23;4.92;;;2.40;;
72205;SDS011;60111;48.286;7.812;2023-07-08T14:27:55;4.17;;;2.60;;
72205;SDS011;60111;48.286;7.812;2023-07-08T14:30:28;5.45;;;3.00;;
72205;SDS011;60111;48.286;7.812;2023-07-08T14:33:00;3.83;;;2.33;;
72205;SDS011;60111;48.286;7.812;2023-07-08T14:35:33;5.62;;;3.02;;
72205;SDS011;60111;48.286;7.812;2023-07-08T14:38:12;4.90;;;2.58;;
72205;SDS011;60111;48.286;7.812;2023-07-08T14:40:45;3.60;;;2.87;;
72205;SDS011;60111;48.286;7.812;2023-07-08T14:43:27;3.40;;;2.30;;
72205;SDS011;60111;48.286;7.812;2023-07-08T14:46:01;4.33;;;2.67;;
72205;SDS011;60111;48.286;7.812;2023-07-08T14:48:35;5.70;;;2.60;;
72205;SDS011;60111;48.286;7.812;2023-07-08T14:51:08;5.92;;;2.40;;
72205;SDS011;60111;48.286;7.812;2023-07-08T14:53:40;7.03;;;3.03;;
72205;SDS011;60111;48.286;7.812;2023-07-08T14:56:14;5.72;;;2.52;;
72205;SDS011;60111;48.286;7.812;2023-07-08T14:58:48;5.10;;;2.95;;
72205;SDS011;60111;48.286;7.812;2023-07-08T15:01:20;6.03;;;2.77;;
72205;SDS011;60111;48.286;7.812;2023-07-08T15:03:55;6.80;;;2.92;;
72205;SDS011;60111;48.286;7.812;2023-07-08T15:06:28;5.33;;;2.50;;
72205;SDS011;60111;48.286;7.812;2023-07-08T15:09:01;7.13;;;3.07;;
72205;SDS011;60111;48.286;7.812;2023-07-08T15:11:34;9.90;;;2.53;;
72205;SDS011;60111;48.286;7.812;2023-07-08T15:14:09;10.83;;;3.43;;
72205;SDS011;60111;48.286;7.812;2023-07-08T15:16:50;4.78;;;3.02;;
72205;SDS011;60111;48.286;7.812;2023-07-08T15:19:23;7.83;;;3.00;;
72205;SDS011;60111;48.286;7.812;2023-07-08T15:21:58;4.22;;;3.22;;
72205;SDS011;60111;48.286;7.812;2023-07-08T15:24:31;4.37;;;2.80;;
72205;SDS011;60111;48.286;7.812;2023-07-08T15:27:03;4.80;;;2.95;;
72205;SDS011;60111;48.286;7.812;2023-07-08T15:32:14;4.30;;;2.70;;
72205;SDS011;60111;48.286;7.812;2023-07-08T15:34:46;7.20;;;3.10;;
72205;SDS011;60111;48.286;7.812;2023-07-08T15:37:18;5.33;;;2.70;;
72205;SDS011;60111;48.286;7.812;2023-07-08T15:39:51;6.87;;;3.10;;
72205;SDS011;60111;48.286;7.812;2023-07-08T15:42:24;8.90;;;2.73;;
72205;SDS011;60111;48.286;7.812;2023-07-08T15:44:56;6.90;;;2.80;;
72205;SDS011;60111;48.286;7.812;2023-07-08T15:47:29;8.07;;;2.70;;
72205;SDS011;60111;48.286;7.812;2023-07-08T15:50:01;4.00;;;2.95;;
72205;SDS011;60111;48.286;7.812;2023-07-08T15:52:35;8.15;;;3.15;;
72205;SDS011;60111;48.286;7.812;2023-07-08T15:55:08;5.42;;;3.02;;
72205;SDS011;60111;48.286;7.812;2023-07-08T15:57:44;7.97;;;3.20;;
72205;SDS011;60111;48.286;7.812;2023-07-08T16:00:23;6.83;;;3.00;;
72205;SDS011;60111;48.286;7.812;2023-07-08T16:02:55;5.03;;;2.50;;
72205;SDS011;60111;48.286;7.812;2023-07-08T16:05:29;6.70;;;2.60;;
72205;SDS011;60111;48.286;7.812;2023-07-08T16:08:04;7.47;;;3.08;;
72205;SDS011;60111;48.286;7.812;2023-07-08T16:10:37;5.72;;;3.25;;
72205;SDS011;60111;48.286;7.812;2023-07-08T16:13:10;5.60;;;3.30;;
72205;SDS011;60111;48.286;7.812;2023-07-08T16:18:15;6.40;;;2.87;;
72205;SDS011;60111;48.286;7.812;2023-07-08T16:20:48;4.17;;;3.13;;
72205;SDS011;60111;48.286;7.812;2023-07-08T16:23:21;7.20;;;2.97;;
72205;SDS011;60111;48.286;7.812;2023-07-08T16:25:55;7.00;;;2.90;;
72205;SDS011;60111;48.286;7.812;2023-07-08T16:28:29;3.73;;;2.90;;
72205;SDS011;60111;48.286;7.812;2023-07-08T16:31:04;6.33;;;3.20;;
72205;SDS011;60111;48.286;7.812;2023-07-08T16:33:40;7.20;;;3.10;;
72205;SDS011;60111;48.286;7.812;2023-07-08T16:36:14;5.25;;;2.85;;
72205;SDS011;60111;48.286;7.812;2023-07-08T16:38:48;9.75;;;4.37;;
72205;SDS011;60111;48.286;7.812;2023-07-08T16:41:22;7.60;;;3.10;;
72205;SDS011;60111;48.286;7.812;2023-07-08T16:43:56;5.28;;;2.90;;
72205;SDS011;60111;48.286;7.812;2023-07-08T16:46:29;7.97;;;2.97;;
72205;SDS011;60111;48.286;7.812;2023-07-08T16:49:01;5.17;;;3.10;;
72205;SDS011;60111;48.286;7.812;2023-07-08T16:51:34;6.47;;;3.13;;